sensor_id;sensor_type;location;lat;lon;timestamp;P1;durP1;ratioP1;P2;durP2;ratioP2
68192;SDS011;55012;47.562;18.414;2023-07-13T00:01:11;6.00;;;2.70;;
68192;SDS011;55012;47.562;18.414;2023-07-13T00:03:37;3.78;;;2.42;;
68192;SDS011;55012;47.562;18.414;2023-07-13T00:06:06;3.65;;;2.30;;
68192;SDS011;55012;47.562;18.414;2023-07-13T00:08:32;4.25;;;2.33;;
68192;SDS011;55012;47.562;18.414;2023-07-13T00:10:58;2.70;;;1.95;;
68192;SDS011;55012;47.562;18.414;2023-07-13T00:13:24;3.22;;;2.05;;
68192;SDS011;55012;47.562;18.414;2023-07-13T00:15:49;4.47;;;2.00;;
68192;SDS011;55012;47.562;18.414;2023-07-13T00:18:15;2.67;;;1.88;;
68192;SDS011;55012;47.562;18.414;2023-07-13T00:20:40;4.65;;;2.08;;
68192;SDS011;55012;47.562;18.414;2023-07-13T00:23:06;4.72;;;2.33;;
68192;SDS011;55012;47.562;18.414;2023-07-13T00:25:32;5.18;;;2.20;;
68192;SDS011;55012;47.562;18.414;2023-07-13T00:27:58;3.90;;;2.50;;
68192;SDS011;55012;47.562;18.414;2023-07-13T00:30:23;4.05;;;2.08;;
68192;SDS011;55012;47.562;18.414;2023-07-13T00:32:49;4.97;;;2.40;;
68192;SDS011;55012;47.562;18.414;2023-07-13T00:35:15;4.55;;;2.13;;
68192;SDS011;55012;47.562;18.414;2023-07-13T00:37:41;7.28;;;2.33;;
68192;SDS011;55012;47.562;18.414;2023-07-13T00:40:07;3.28;;;2.08;;
68192;SDS011;55012;47.562;18.414;2023-07-13T00:42:36;3.88;;;1.98;;
68192;SDS011;55012;47.562;18.414;2023-07-13T00:47:50;3.55;;;1.90;;
68192;SDS011;55012;47.562;18.414;2023-07-13T00:50:16;4.55;;;2.00;;
68192;SDS011;55012;47.562;18.414;2023-07-13T00:52:44;4.22;;;1.95;;
68192;SDS011;55012;47.562;18.414;2023-07-13T00:55:14;3.78;;;2.20;;
68192;SDS011;55012;47.562;18.414;2023-07-13T00:57:41;3.33;;;2.13;;
68192;SDS011;55012;47.562;18.414;2023-07-13T01:00:08;3.72;;;2.08;;
68192;SDS011;55012;47.562;18.414;2023-07-13T01:02:39;2.40;;;2.00;;
68192;SDS011;55012;47.562;18.414;2023-07-13T01:05:10;4.80;;;2.00;;
68192;SDS011;55012;47.562;18.414;2023-07-13T01:07:39;3.75;;;2.20;;
68192;SDS011;55012;47.562;18.414;2023-07-13T01:10:05;4.07;;;2.08;;
68192;SDS011;55012;47.562;18.414;2023-07-13T01:12:31;6.82;;;2.10;;
68192;SDS011;55012;47.562;18.414;2023-07-13T01:14:57;2.72;;;2.00;;
68192;SDS011;55012;47.562;18.414;2023-07-13T01:17:25;3.15;;;2.00;;
68192;SDS011;55012;47.562;18.414;2023-07-13T01:19:52;4.22;;;2.17;;
68192;SDS011;55012;47.562;18.414;2023-07-13T01:22:18;5.07;;;2.30;;
68192;SDS011;55012;47.562;18.414;2023-07-13T01:24:47;4.68;;;2.30;;
68192;SDS011;55012;47.562;18.414;2023-07-13T01:27:14;6.28;;;2.25;;
68192;SDS011;55012;47.562;18.414;2023-07-13T01:29:44;5.18;;;2.60;;
68192;SDS011;55012;47.562;18.414;2023-07-13T01:32:21;5.10;;;2.28;;
68192;SDS011;55012;47.562;18.414;2023-07-13T01:34:52;3.60;;;2.15;;
68192;SDS011;55012;47.562;18.414;2023-07-13T01:37:22;6.63;;;2.70;;
68192;SDS011;55012;47.562;18.414;2023-07-13T01:39:48;4.50;;;2.90;;
68192;SDS011;55012;47.562;18.414;2023-07-13T01:42:14;6.25;;;2.80;;
68192;SDS011;55012;47.562;18.414;2023-07-13T01:44:39;4.68;;;3.08;;
68192;SDS011;55012;47.562;18.414;2023-07-13T01:47:05;5.20;;;2.92;;
68192;SDS011;55012;47.562;18.414;2023-07-13T01:49:31;5.28;;;2.97;;
68192;SDS011;55012;47.562;18.414;2023-07-13T01:51:56;7.50;;;3.17;;
68192;SDS011;55012;47.562;18.414;2023-07-13T01:54:22;7.85;;;3.35;;
68192;SDS011;55012;47.562;18.414;2023-07-13T01:56:47;5.10;;;3.28;;
68192;SDS011;55012;47.562;18.414;2023-07-13T01:59:13;6.68;;;3.53;;
68192;SDS011;55012;47.562;18.414;2023-07-13T02:01:38;6.85;;;3.53;;
68192;SDS011;55012;47.562;18.414;2023-07-13T02:04:04;7.28;;;4.30;;
68192;SDS011;55012;47.562;18.414;2023-07-13T02:06:30;5.95;;;3.40;;
68192;SDS011;55012;47.562;18.414;2023-07-13T02:08:55;6.43;;;3.83;;
68192;SDS011;55012;47.562;18.414;2023-07-13T02:11:21;5.47;;;3.72;;
68192;SDS011;55012;47.562;18.414;2023-07-13T02:13:46;7.22;;;3.80;;
68192;SDS011;55012;47.562;18.414;2023-07-13T02:16:12;6.88;;;4.10;;
68192;SDS011;55012;47.562;18.414;2023-07-13T02:18:37;6.30;;;4.22;;
68192;SDS011;55012;47.562;18.414;2023-07-13T02:21:03;8.27;;;4.20;;
68192;SDS011;55012;47.562;18.414;2023-07-13T02:23:28;10.80;;;4.95;;
68192;SDS011;55012;47.562;18.414;2023-07-13T02:25:58;9.48;;;4.55;;
68192;SDS011;55012;47.562;18.414;2023-07-13T02:28:24;6.95;;;4.50;;
68192;SDS011;55012;47.562;18.414;2023-07-13T02:30:50;8.52;;;4.80;;
68192;SDS011;55012;47.562;18.414;2023-07-13T02:33:15;9.45;;;5.10;;
68192;SDS011;55012;47.562;18.414;2023-07-13T02:35:41;8.15;;;5.13;;
68192;SDS011;55012;47.562;18.414;2023-07-13T02:38:06;6.80;;;4.60;;
68192;SDS011;55012;47.562;18.414;2023-07-13T02:40:32;6.05;;;4.43;;
68192;SDS011;55012;47.562;18.414;2023-07-13T02:42:58;6.90;;;4.05;;
68192;SDS011;55012;47.562;18.414;2023-07-13T02:45:25;5.95;;;3.58;;
68192;SDS011;55012;47.562;18.414;2023-07-13T02:47:50;5.03;;;3.35;;
68192;SDS011;55012;47.562;18.414;2023-07-13T02:50:16;4.78;;;3.20;;
68192;SDS011;55012;47.562;18.414;2023-07-13T02:52:41;7.85;;;3.63;;
68192;SDS011;55012;47.562;18.414;2023-07-13T02:55:07;5.28;;;3.45;;
68192;SDS011;55012;47.562;18.414;2023-07-13T02:57:33;5.40;;;3.47;;
68192;SDS011;55012;47.562;18.414;2023-07-13T02:59:59;6.53;;;2.90;;
68192;SDS011;55012;47.562;18.414;2023-07-13T03:02:25;5.97;;;2.95;;
68192;SDS011;55012;47.562;18.414;2023-07-13T03:04:53;7.63;;;4.13;;
68192;SDS011;55012;47.562;18.414;2023-07-13T03:07:18;7.13;;;3.08;;
68192;SDS011;55012;47.562;18.414;2023-07-13T03:09:44;5.53;;;3.78;;
68192;SDS011;55012;47.562;18.414;2023-07-13T03:12:09;4.50;;;2.65;;
68192;SDS011;55012;47.562;18.414;2023-07-13T03:14:35;8.98;;;4.25;;
68192;SDS011;55012;47.562;18.414;2023-07-13T03:17:00;7.03;;;4.22;;
68192;SDS011;55012;47.562;18.414;2023-07-13T03:19:25;10.40;;;4.55;;
68192;SDS011;55012;47.562;18.414;2023-07-13T03:21:51;6.68;;;4.20;;
68192;SDS011;55012;47.562;18.414;2023-07-13T03:24:16;7.28;;;4.50;;
68192;SDS011;55012;47.562;18.414;2023-07-13T03:26:42;6.78;;;4.28;;
68192;SDS011;55012;47.562;18.414;2023-07-13T03:29:07;5.30;;;3.83;;
68192;SDS011;55012;47.562;18.414;2023-07-13T03:31:33;6.05;;;3.75;;
68192;SDS011;55012;47.562;18.414;2023-07-13T03:34:00;6.38;;;4.10;;
68192;SDS011;55012;47.562;18.414;2023-07-13T03:36:27;6.70;;;3.92;;
68192;SDS011;55012;47.562;18.414;2023-07-13T03:38:55;6.78;;;4.15;;
68192;SDS011;55012;47.562;18.414;2023-07-13T03:41:23;6.70;;;4.80;;
68192;SDS011;55012;47.562;18.414;2023-07-13T03:43:49;10.00;;;4.75;;
68192;SDS011;55012;47.562;18.414;2023-07-13T03:46:15;6.63;;;3.92;;
68192;SDS011;55012;47.562;18.414;2023-07-13T03:48:42;9.80;;;5.40;;
68192;SDS011;55012;47.562;18.414;2023-07-13T03:51:09;9.02;;;5.45;;
68192;SDS011;55012;47.562;18.414;2023-07-13T03:53:39;10.15;;;5.13;;
68192;SDS011;55012;47.562;18.414;2023-07-13T03:56:06;6.78;;;4.13;;
68192;SDS011;55012;47.562;18.414;2023-07-13T03:58:36;9.23;;;4.40;;
68192;SDS011;55012;47.562;18.414;2023-07-13T04:01:04;7.25;;;4.00;;
68192;SDS011;55012;47.562;18.414;2023-07-13T04:03:30;5.82;;;3.42;;
68192;SDS011;55012;47.562;18.414;2023-07-13T04:05:58;6.88;;;3.30;;
68192;SDS011;55012;47.562;18.414;2023-07-13T04:08:43;7.88;;;3.35;;
68192;SDS011;55012;47.562;18.414;2023-07-13T04:11:08;7.15;;;3.28;;
68192;SDS011;55012;47.562;18.414;2023-07-13T04:13:34;7.53;;;3.05;;
68192;SDS011;55012;47.562;18.414;2023-07-13T04:16:00;9.98;;;3.17;;
68192;SDS011;55012;47.562;18.414;2023-07-13T04:18:25;9.98;;;3.00;;
68192;SDS011;55012;47.562;18.414;2023-07-13T04:20:51;9.68;;;3.42;;
68192;SDS011;55012;47.562;18.414;2023-07-13T04:23:17;4.63;;;3.00;;
68192;SDS011;55012;47.562;18.414;2023-07-13T04:25:46;5.68;;;3.17;;
68192;SDS011;55012;47.562;18.414;2023-07-13T04:28:14;5.95;;;2.83;;
68192;SDS011;55012;47.562;18.414;2023-07-13T04:30:40;4.28;;;2.80;;
68192;SDS011;55012;47.562;18.414;2023-07-13T04:33:05;5.32;;;3.28;;
68192;SDS011;55012;47.562;18.414;2023-07-13T04:35:31;7.15;;;3.80;;
68192;SDS011;55012;47.562;18.414;2023-07-13T04:37:56;13.02;;;4.05;;
68192;SDS011;55012;47.562;18.414;2023-07-13T04:40:22;5.88;;;4.25;;
68192;SDS011;55012;47.562;18.414;2023-07-13T04:42:48;9.40;;;5.57;;
68192;SDS011;55012;47.562;18.414;2023-07-13T04:45:14;12.38;;;5.47;;
68192;SDS011;55012;47.562;18.414;2023-07-13T04:47:40;11.05;;;4.15;;
68192;SDS011;55012;47.562;18.414;2023-07-13T04:50:07;26.85;;;5.57;;
68192;SDS011;55012;47.562;18.414;2023-07-13T04:52:34;18.60;;;7.13;;
68192;SDS011;55012;47.562;18.414;2023-07-13T04:54:59;13.70;;;6.95;;
68192;SDS011;55012;47.562;18.414;2023-07-13T04:57:25;19.42;;;5.90;;
68192;SDS011;55012;47.562;18.414;2023-07-13T04:59:51;13.48;;;6.43;;
68192;SDS011;55012;47.562;18.414;2023-07-13T05:02:17;15.48;;;7.20;;
68192;SDS011;55012;47.562;18.414;2023-07-13T05:04:43;13.23;;;6.03;;
68192;SDS011;55012;47.562;18.414;2023-07-13T05:07:11;21.33;;;5.45;;
68192;SDS011;55012;47.562;18.414;2023-07-13T05:09:37;12.38;;;4.57;;
68192;SDS011;55012;47.562;18.414;2023-07-13T05:12:02;11.90;;;4.30;;
68192;SDS011;55012;47.562;18.414;2023-07-13T05:14:28;23.35;;;6.18;;
68192;SDS011;55012;47.562;18.414;2023-07-13T05:16:54;14.05;;;4.70;;
68192;SDS011;55012;47.562;18.414;2023-07-13T05:19:19;26.95;;;4.97;;
68192;SDS011;55012;47.562;18.414;2023-07-13T05:21:44;16.42;;;5.60;;
68192;SDS011;55012;47.562;18.414;2023-07-13T05:24:10;29.10;;;6.13;;
68192;SDS011;55012;47.562;18.414;2023-07-13T05:26:35;24.50;;;6.40;;
68192;SDS011;55012;47.562;18.414;2023-07-13T05:29:01;25.08;;;6.53;;
68192;SDS011;55012;47.562;18.414;2023-07-13T05:31:26;19.65;;;6.75;;
68192;SDS011;55012;47.562;18.414;2023-07-13T05:33:53;23.05;;;6.20;;
68192;SDS011;55012;47.562;18.414;2023-07-13T05:36:18;13.88;;;5.60;;
68192;SDS011;55012;47.562;18.414;2023-07-13T05:38:44;18.00;;;5.07;;
68192;SDS011;55012;47.562;18.414;2023-07-13T05:41:09;13.88;;;5.93;;
68192;SDS011;55012;47.562;18.414;2023-07-13T05:43:34;23.48;;;5.60;;
68192;SDS011;55012;47.562;18.414;2023-07-13T05:46:00;17.02;;;5.47;;
68192;SDS011;55012;47.562;18.414;2023-07-13T05:48:26;17.95;;;6.43;;
68192;SDS011;55012;47.562;18.414;2023-07-13T05:50:51;8.80;;;3.90;;
68192;SDS011;55012;47.562;18.414;2023-07-13T05:53:17;11.02;;;5.90;;
68192;SDS011;55012;47.562;18.414;2023-07-13T05:55:43;10.40;;;6.20;;
68192;SDS011;55012;47.562;18.414;2023-07-13T05:58:09;10.75;;;5.28;;
68192;SDS011;55012;47.562;18.414;2023-07-13T06:00:36;7.95;;;3.65;;
68192;SDS011;55012;47.562;18.414;2023-07-13T06:03:01;6.75;;;3.10;;
68192;SDS011;55012;47.562;18.414;2023-07-13T06:05:27;4.07;;;2.05;;
68192;SDS011;55012;47.562;18.414;2023-07-13T06:07:54;5.55;;;4.00;;
68192;SDS011;55012;47.562;18.414;2023-07-13T06:10:19;5.95;;;2.80;;
68192;SDS011;55012;47.562;18.414;2023-07-13T06:12:45;5.35;;;3.25;;
68192;SDS011;55012;47.562;18.414;2023-07-13T06:15:10;7.07;;;2.75;;
68192;SDS011;55012;47.562;18.414;2023-07-13T06:17:36;3.97;;;2.78;;
68192;SDS011;55012;47.562;18.414;2023-07-13T06:20:01;6.63;;;2.80;;
68192;SDS011;55012;47.562;18.414;2023-07-13T06:22:27;3.17;;;2.30;;
68192;SDS011;55012;47.562;18.414;2023-07-13T06:24:53;3.95;;;2.60;;
68192;SDS011;55012;47.562;18.414;2023-07-13T06:27:18;3.55;;;3.13;;
68192;SDS011;55012;47.562;18.414;2023-07-13T06:29:43;5.97;;;3.00;;
68192;SDS011;55012;47.562;18.414;2023-07-13T06:32:10;3.63;;;2.95;;
68192;SDS011;55012;47.562;18.414;2023-07-13T06:34:35;5.85;;;2.97;;
68192;SDS011;55012;47.562;18.414;2023-07-13T06:37:01;5.20;;;3.03;;
68192;SDS011;55012;47.562;18.414;2023-07-13T06:39:27;6.60;;;3.45;;
68192;SDS011;55012;47.562;18.414;2023-07-13T06:41:52;6.10;;;3.90;;
68192;SDS011;55012;47.562;18.414;2023-07-13T06:44:17;4.15;;;2.80;;
68192;SDS011;55012;47.562;18.414;2023-07-13T06:46:43;3.65;;;2.90;;
68192;SDS011;55012;47.562;18.414;2023-07-13T06:49:08;4.55;;;3.25;;
68192;SDS011;55012;47.562;18.414;2023-07-13T06:51:34;6.55;;;3.08;;
68192;SDS011;55012;47.562;18.414;2023-07-13T06:53:59;9.10;;;3.88;;
68192;SDS011;55012;47.562;18.414;2023-07-13T06:56:25;6.00;;;3.92;;
68192;SDS011;55012;47.562;18.414;2023-07-13T06:58:50;7.68;;;4.53;;
68192;SDS011;55012;47.562;18.414;2023-07-13T07:01:15;6.95;;;4.80;;
68192;SDS011;55012;47.562;18.414;2023-07-13T07:03:41;6.97;;;5.20;;
68192;SDS011;55012;47.562;18.414;2023-07-13T07:06:17;8.60;;;4.88;;
68192;SDS011;55012;47.562;18.414;2023-07-13T07:08:44;9.77;;;6.03;;
68192;SDS011;55012;47.562;18.414;2023-07-13T07:11:13;11.82;;;6.70;;
68192;SDS011;55012;47.562;18.414;2023-07-13T07:13:41;12.50;;;6.40;;
68192;SDS011;55012;47.562;18.414;2023-07-13T07:16:06;8.32;;;6.05;;
68192;SDS011;55012;47.562;18.414;2023-07-13T07:18:33;10.75;;;6.72;;
68192;SDS011;55012;47.562;18.414;2023-07-13T07:20:59;10.55;;;6.65;;
68192;SDS011;55012;47.562;18.414;2023-07-13T07:23:24;10.23;;;5.93;;
68192;SDS011;55012;47.562;18.414;2023-07-13T07:25:50;8.95;;;5.50;;
68192;SDS011;55012;47.562;18.414;2023-07-13T07:28:16;9.02;;;5.32;;
68192;SDS011;55012;47.562;18.414;2023-07-13T07:30:43;7.90;;;5.07;;
68192;SDS011;55012;47.562;18.414;2023-07-13T07:33:13;9.10;;;4.93;;
68192;SDS011;55012;47.562;18.414;2023-07-13T07:35:39;8.60;;;4.93;;
68192;SDS011;55012;47.562;18.414;2023-07-13T07:38:05;7.90;;;4.95;;
68192;SDS011;55012;47.562;18.414;2023-07-13T07:40:31;6.90;;;4.90;;
68192;SDS011;55012;47.562;18.414;2023-07-13T07:42:57;7.35;;;5.00;;
68192;SDS011;55012;47.562;18.414;2023-07-13T07:45:22;6.47;;;4.55;;
68192;SDS011;55012;47.562;18.414;2023-07-13T07:47:48;8.05;;;4.68;;
68192;SDS011;55012;47.562;18.414;2023-07-13T07:50:14;7.50;;;4.50;;
68192;SDS011;55012;47.562;18.414;2023-07-13T07:52:39;6.05;;;3.85;;
68192;SDS011;55012;47.562;18.414;2023-07-13T07:55:05;7.55;;;4.38;;
68192;SDS011;55012;47.562;18.414;2023-07-13T07:57:32;7.13;;;4.68;;
68192;SDS011;55012;47.562;18.414;2023-07-13T07:59:57;6.65;;;4.45;;
68192;SDS011;55012;47.562;18.414;2023-07-13T08:02:24;6.28;;;4.00;;
68192;SDS011;55012;47.562;18.414;2023-07-13T08:04:49;6.60;;;4.00;;
68192;SDS011;55012;47.562;18.414;2023-07-13T08:07:15;6.43;;;4.43;;
68192;SDS011;55012;47.562;18.414;2023-07-13T08:09:40;5.82;;;3.60;;
68192;SDS011;55012;47.562;18.414;2023-07-13T08:12:06;5.18;;;3.05;;
68192;SDS011;55012;47.562;18.414;2023-07-13T08:14:32;5.63;;;3.22;;
68192;SDS011;55012;47.562;18.414;2023-07-13T08:16:58;5.18;;;3.30;;
68192;SDS011;55012;47.562;18.414;2023-07-13T08:19:23;5.97;;;3.10;;
68192;SDS011;55012;47.562;18.414;2023-07-13T08:21:49;5.38;;;3.20;;
68192;SDS011;55012;47.562;18.414;2023-07-13T08:24:14;3.97;;;2.97;;
68192;SDS011;55012;47.562;18.414;2023-07-13T08:26:40;5.15;;;3.13;;
68192;SDS011;55012;47.562;18.414;2023-07-13T08:29:06;3.92;;;2.90;;
68192;SDS011;55012;47.562;18.414;2023-07-13T08:31:31;3.75;;;2.80;;
68192;SDS011;55012;47.562;18.414;2023-07-13T08:33:57;5.80;;;3.25;;
68192;SDS011;55012;47.562;18.414;2023-07-13T08:36:22;5.72;;;2.90;;
68192;SDS011;55012;47.562;18.414;2023-07-13T08:38:48;3.78;;;3.00;;
68192;SDS011;55012;47.562;18.414;2023-07-13T08:41:17;4.32;;;2.80;;
68192;SDS011;55012;47.562;18.414;2023-07-13T08:43:46;4.78;;;2.97;;
68192;SDS011;55012;47.562;18.414;2023-07-13T08:46:17;4.30;;;3.10;;
68192;SDS011;55012;47.562;18.414;2023-07-13T08:48:50;4.70;;;3.33;;
68192;SDS011;55012;47.562;18.414;2023-07-13T08:53:46;7.75;;;3.75;;
68192;SDS011;55012;47.562;18.414;2023-07-13T08:56:28;5.95;;;3.40;;
68192;SDS011;55012;47.562;18.414;2023-07-13T08:59:00;5.03;;;3.72;;
68192;SDS011;55012;47.562;18.414;2023-07-13T09:01:34;3.78;;;3.38;;
68192;SDS011;55012;47.562;18.414;2023-07-13T09:04:16;4.00;;;3.20;;
68192;SDS011;55012;47.562;18.414;2023-07-13T09:18:13;5.40;;;3.63;;
68192;SDS011;55012;47.562;18.414;2023-07-13T09:20:48;5.53;;;3.75;;
68192;SDS011;55012;47.562;18.414;2023-07-13T09:23:20;4.72;;;3.47;;
68192;SDS011;55012;47.562;18.414;2023-07-13T09:25:47;4.97;;;3.30;;
68192;SDS011;55012;47.562;18.414;2023-07-13T09:28:22;4.72;;;3.53;;
68192;SDS011;55012;47.562;18.414;2023-07-13T09:30:56;4.72;;;3.38;;
68192;SDS011;55012;47.562;18.414;2023-07-13T09:33:26;5.60;;;3.25;;
68192;SDS011;55012;47.562;18.414;2023-07-13T09:35:54;4.38;;;3.00;;
68192;SDS011;55012;47.562;18.414;2023-07-13T09:38:22;4.88;;;2.97;;
68192;SDS011;55012;47.562;18.414;2023-07-13T09:41:08;3.90;;;2.97;;
68192;SDS011;55012;47.562;18.414;2023-07-13T09:43:36;3.72;;;3.10;;
68192;SDS011;55012;47.562;18.414;2023-07-13T09:46:01;4.13;;;2.83;;
68192;SDS011;55012;47.562;18.414;2023-07-13T09:48:32;7.70;;;3.05;;
68192;SDS011;55012;47.562;18.414;2023-07-13T09:51:02;5.22;;;3.20;;
68192;SDS011;55012;47.562;18.414;2023-07-13T09:53:37;4.40;;;3.05;;
68192;SDS011;55012;47.562;18.414;2023-07-13T09:56:03;7.13;;;3.22;;
68192;SDS011;55012;47.562;18.414;2023-07-13T09:58:30;3.75;;;3.03;;
68192;SDS011;55012;47.562;18.414;2023-07-13T10:01:03;3.58;;;3.05;;
68192;SDS011;55012;47.562;18.414;2023-07-13T10:03:33;4.57;;;3.00;;
68192;SDS011;55012;47.562;18.414;2023-07-13T10:06:12;3.75;;;2.88;;
68192;SDS011;55012;47.562;18.414;2023-07-13T10:08:39;4.15;;;3.03;;
68192;SDS011;55012;47.562;18.414;2023-07-13T10:11:09;4.45;;;3.22;;
68192;SDS011;55012;47.562;18.414;2023-07-13T10:13:36;4.65;;;2.85;;
68192;SDS011;55012;47.562;18.414;2023-07-13T10:16:06;6.95;;;3.10;;
68192;SDS011;55012;47.562;18.414;2023-07-13T10:18:45;4.72;;;3.17;;
68192;SDS011;55012;47.562;18.414;2023-07-13T10:23:45;4.20;;;3.00;;
68192;SDS011;55012;47.562;18.414;2023-07-13T10:26:16;4.40;;;3.30;;
68192;SDS011;55012;47.562;18.414;2023-07-13T10:28:47;4.05;;;3.13;;
68192;SDS011;55012;47.562;18.414;2023-07-13T10:31:17;4.30;;;3.50;;
68192;SDS011;55012;47.562;18.414;2023-07-13T10:33:45;3.55;;;3.10;;
68192;SDS011;55012;47.562;18.414;2023-07-13T10:36:15;4.57;;;3.20;;
68192;SDS011;55012;47.562;18.414;2023-07-13T10:38:48;5.90;;;3.63;;
68192;SDS011;55012;47.562;18.414;2023-07-13T10:41:21;4.90;;;3.40;;
68192;SDS011;55012;47.562;18.414;2023-07-13T10:43:52;4.65;;;3.40;;
68192;SDS011;55012;47.562;18.414;2023-07-13T10:46:21;4.05;;;3.30;;
68192;SDS011;55012;47.562;18.414;2023-07-13T10:48:49;5.55;;;3.55;;
68192;SDS011;55012;47.562;18.414;2023-07-13T10:51:19;5.50;;;3.80;;
68192;SDS011;55012;47.562;18.414;2023-07-13T10:53:48;8.40;;;3.70;;
68192;SDS011;55012;47.562;18.414;2023-07-13T10:56:36;4.22;;;3.70;;
68192;SDS011;55012;47.562;18.414;2023-07-13T10:59:19;5.28;;;3.80;;
68192;SDS011;55012;47.562;18.414;2023-07-13T11:04:31;5.68;;;3.85;;
68192;SDS011;55012;47.562;18.414;2023-07-13T11:07:10;4.45;;;3.60;;
68192;SDS011;55012;47.562;18.414;2023-07-13T11:09:43;5.15;;;3.80;;
68192;SDS011;55012;47.562;18.414;2023-07-13T11:22:44;4.75;;;3.80;;
68192;SDS011;55012;47.562;18.414;2023-07-13T11:25:31;4.82;;;3.97;;
68192;SDS011;55012;47.562;18.414;2023-07-13T11:33:53;4.95;;;3.60;;
68192;SDS011;55012;47.562;18.414;2023-07-13T11:41:00;5.40;;;3.90;;
68192;SDS011;55012;47.562;18.414;2023-07-13T11:43:29;6.63;;;3.75;;
68192;SDS011;55012;47.562;18.414;2023-07-13T11:45:54;5.18;;;3.75;;
68192;SDS011;55012;47.562;18.414;2023-07-13T11:48:21;4.60;;;3.45;;
68192;SDS011;55012;47.562;18.414;2023-07-13T11:50:51;6.03;;;3.60;;
68192;SDS011;55012;47.562;18.414;2023-07-13T11:53:19;7.78;;;3.63;;
68192;SDS011;55012;47.562;18.414;2023-07-13T11:55:45;4.97;;;3.50;;
68192;SDS011;55012;47.562;18.414;2023-07-13T11:58:11;4.75;;;3.50;;
68192;SDS011;55012;47.562;18.414;2023-07-13T12:00:42;4.43;;;3.58;;
68192;SDS011;55012;47.562;18.414;2023-07-13T12:03:07;5.93;;;3.90;;
68192;SDS011;55012;47.562;18.414;2023-07-13T12:05:36;4.85;;;3.55;;
68192;SDS011;55012;47.562;18.414;2023-07-13T12:08:08;7.45;;;3.70;;
68192;SDS011;55012;47.562;18.414;2023-07-13T12:10:38;4.18;;;3.55;;
68192;SDS011;55012;47.562;18.414;2023-07-13T12:13:04;4.10;;;3.40;;
68192;SDS011;55012;47.562;18.414;2023-07-13T12:18:38;4.38;;;3.40;;
68192;SDS011;55012;47.562;18.414;2023-07-13T12:20:59;4.93;;;3.35;;
68192;SDS011;55012;47.562;18.414;2023-07-13T12:23:29;4.10;;;3.17;;
68192;SDS011;55012;47.562;18.414;2023-07-13T12:26:00;5.13;;;3.17;;
68192;SDS011;55012;47.562;18.414;2023-07-13T12:31:05;4.65;;;3.50;;
68192;SDS011;55012;47.562;18.414;2023-07-13T12:33:48;4.38;;;3.60;;
68192;SDS011;55012;47.562;18.414;2023-07-13T12:36:22;4.38;;;3.08;;
68192;SDS011;55012;47.562;18.414;2023-07-13T12:38:47;5.72;;;3.15;;
68192;SDS011;55012;47.562;18.414;2023-07-13T12:41:14;4.30;;;3.15;;
68192;SDS011;55012;47.562;18.414;2023-07-13T12:43:40;5.32;;;3.40;;
68192;SDS011;55012;47.562;18.414;2023-07-13T12:46:19;3.80;;;3.30;;
68192;SDS011;55012;47.562;18.414;2023-07-13T12:48:48;3.40;;;3.00;;
68192;SDS011;55012;47.562;18.414;2023-07-13T12:51:16;4.95;;;3.28;;
68192;SDS011;55012;47.562;18.414;2023-07-13T12:53:51;4.97;;;3.50;;
68192;SDS011;55012;47.562;18.414;2023-07-13T12:56:23;3.60;;;3.30;;
68192;SDS011;55012;47.562;18.414;2023-07-13T12:58:56;4.10;;;3.38;;
68192;SDS011;55012;47.562;18.414;2023-07-13T13:01:26;3.83;;;3.25;;
68192;SDS011;55012;47.562;18.414;2023-07-13T13:03:54;4.55;;;3.10;;
68192;SDS011;55012;47.562;18.414;2023-07-13T13:06:27;4.07;;;3.00;;
68192;SDS011;55012;47.562;18.414;2023-07-13T13:08:57;3.87;;;3.00;;
68192;SDS011;55012;47.562;18.414;2023-07-13T13:11:25;3.95;;;3.08;;
68192;SDS011;55012;47.562;18.414;2023-07-13T13:13:51;4.03;;;3.10;;
68192;SDS011;55012;47.562;18.414;2023-07-13T13:16:29;3.80;;;3.10;;
68192;SDS011;55012;47.562;18.414;2023-07-13T13:18:57;3.53;;;2.92;;
68192;SDS011;55012;47.562;18.414;2023-07-13T13:21:27;3.75;;;3.17;;
68192;SDS011;55012;47.562;18.414;2023-07-13T13:23:53;5.18;;;3.30;;
68192;SDS011;55012;47.562;18.414;2023-07-13T13:26:18;4.60;;;3.00;;
68192;SDS011;55012;47.562;18.414;2023-07-13T13:28:46;4.20;;;2.83;;
68192;SDS011;55012;47.562;18.414;2023-07-13T13:31:12;4.32;;;3.00;;
68192;SDS011;55012;47.562;18.414;2023-07-13T13:33:40;3.90;;;3.00;;
68192;SDS011;55012;47.562;18.414;2023-07-13T13:36:28;3.58;;;2.90;;
68192;SDS011;55012;47.562;18.414;2023-07-13T13:38:54;3.25;;;2.80;;
68192;SDS011;55012;47.562;18.414;2023-07-13T13:41:20;3.75;;;2.50;;
68192;SDS011;55012;47.562;18.414;2023-07-13T13:43:45;3.45;;;2.50;;
68192;SDS011;55012;47.562;18.414;2023-07-13T13:46:23;4.90;;;2.60;;
68192;SDS011;55012;47.562;18.414;2023-07-13T13:48:55;3.75;;;2.70;;
68192;SDS011;55012;47.562;18.414;2023-07-13T13:51:22;4.18;;;2.42;;
68192;SDS011;55012;47.562;18.414;2023-07-13T13:53:49;3.08;;;2.28;;
68192;SDS011;55012;47.562;18.414;2023-07-13T13:56:15;3.28;;;2.78;;
68192;SDS011;55012;47.562;18.414;2023-07-13T13:58:43;4.43;;;2.65;;
68192;SDS011;55012;47.562;18.414;2023-07-13T14:01:12;3.08;;;2.40;;
68192;SDS011;55012;47.562;18.414;2023-07-13T14:03:41;3.45;;;2.40;;
68192;SDS011;55012;47.562;18.414;2023-07-13T14:06:07;3.13;;;2.20;;
68192;SDS011;55012;47.562;18.414;2023-07-13T14:08:37;4.30;;;2.60;;
68192;SDS011;55012;47.562;18.414;2023-07-13T14:11:02;4.85;;;2.65;;
68192;SDS011;55012;47.562;18.414;2023-07-13T14:13:36;2.95;;;2.40;;
68192;SDS011;55012;47.562;18.414;2023-07-13T14:16:12;4.30;;;2.53;;
68192;SDS011;55012;47.562;18.414;2023-07-13T14:18:42;3.70;;;2.63;;
68192;SDS011;55012;47.562;18.414;2023-07-13T14:21:13;4.03;;;2.58;;
68192;SDS011;55012;47.562;18.414;2023-07-13T14:23:40;3.20;;;2.30;;
68192;SDS011;55012;47.562;18.414;2023-07-13T14:26:12;2.72;;;2.40;;
68192;SDS011;55012;47.562;18.414;2023-07-13T14:28:58;3.40;;;2.50;;
68192;SDS011;55012;47.562;18.414;2023-07-13T14:31:24;3.80;;;2.38;;
68192;SDS011;55012;47.562;18.414;2023-07-13T14:33:51;4.82;;;2.65;;
68192;SDS011;55012;47.562;18.414;2023-07-13T14:36:31;4.00;;;2.83;;
68192;SDS011;55012;47.562;18.414;2023-07-13T14:39:01;3.88;;;2.90;;
68192;SDS011;55012;47.562;18.414;2023-07-13T14:41:34;3.00;;;2.55;;
68192;SDS011;55012;47.562;18.414;2023-07-13T14:43:59;3.10;;;2.40;;
68192;SDS011;55012;47.562;18.414;2023-07-13T14:46:29;4.07;;;2.63;;
68192;SDS011;55012;47.562;18.414;2023-07-13T14:49:11;3.40;;;2.90;;
68192;SDS011;55012;47.562;18.414;2023-07-13T14:51:41;2.92;;;2.30;;
68192;SDS011;55012;47.562;18.414;2023-07-13T14:54:08;4.25;;;2.42;;
68192;SDS011;55012;47.562;18.414;2023-07-13T14:56:34;4.70;;;2.40;;
68192;SDS011;55012;47.562;18.414;2023-07-13T14:59:00;3.63;;;2.55;;
68192;SDS011;55012;47.562;18.414;2023-07-13T15:01:25;2.70;;;2.40;;
68192;SDS011;55012;47.562;18.414;2023-07-13T15:03:52;2.40;;;2.10;;
68192;SDS011;55012;47.562;18.414;2023-07-13T15:06:17;3.33;;;2.53;;
68192;SDS011;55012;47.562;18.414;2023-07-13T15:08:44;2.83;;;2.40;;
68192;SDS011;55012;47.562;18.414;2023-07-13T15:11:10;4.18;;;2.30;;
68192;SDS011;55012;47.562;18.414;2023-07-13T15:13:38;2.95;;;2.42;;
68192;SDS011;55012;47.562;18.414;2023-07-13T15:16:09;2.85;;;2.50;;
68192;SDS011;55012;47.562;18.414;2023-07-13T15:18:42;3.25;;;2.60;;
68192;SDS011;55012;47.562;18.414;2023-07-13T15:21:08;4.63;;;2.97;;
68192;SDS011;55012;47.562;18.414;2023-07-13T15:23:39;4.50;;;3.10;;
68192;SDS011;55012;47.562;18.414;2023-07-13T15:26:05;2.88;;;2.50;;